createdAt,value
2018-12-29T00:03:17.158Z,63.78
2018-12-29T00:05:57.973Z,66.42
2018-12-29T00:08:39.000Z,64.37
2018-12-29T00:11:19.530Z,61.18
2018-12-29T00:14:00.388Z,62.10
2018-12-29T00:16:41.330Z,65.72
2018-12-29T00:19:22.546Z,61.68
2018-12-29T00:22:03.042Z,61.45
2018-12-29T00:24:43.858Z,70.42
2018-12-29T00:27:24.605Z,64.00
2018-12-29T00:30:05.172Z,54.53
2018-12-29T00:32:45.446Z,59.30
2018-12-29T00:35:26.415Z,59.80
2018-12-29T00:38:06.933Z,60.38
2018-12-29T00:40:47.413Z,61.60
2018-12-29T00:43:28.290Z,61.77
2018-12-29T00:46:09.558Z,62.15
2018-12-29T00:48:50.758Z,62.05
2018-12-29T00:51:31.316Z,56.08
2018-12-29T00:54:12.238Z,60.12
2018-12-29T00:56:53.162Z,66.75
2018-12-29T00:59:34.338Z,62.58
2018-12-29T01:02:15.374Z,65.87
2018-12-29T01:04:56.201Z,62.95
2018-12-29T01:07:36.786Z,63.80
2018-12-29T01:10:17.634Z,59.42
2018-12-29T01:12:59.109Z,58.05
2018-12-29T01:15:40.058Z,59.15
2018-12-29T01:18:21.534Z,54.35
2018-12-29T01:21:02.781Z,66.28
2018-12-29T01:23:43.530Z,62.43
2018-12-29T01:26:24.834Z,60.55
2018-12-29T01:29:05.481Z,54.15
2018-12-29T01:31:46.510Z,57.33
2018-12-29T01:34:27.135Z,51.70
2018-12-29T01:39:51.506Z,56.65
2018-12-29T01:42:35.637Z,55.65
2018-12-29T01:48:01.870Z,54.45
2018-12-29T01:53:27.105Z,57.23
2018-12-29T01:56:08.293Z,56.63
2018-12-29T01:58:49.068Z,57.78
2018-12-29T02:01:29.981Z,64.10
2018-12-29T02:04:10.611Z,62.85
2018-12-29T02:09:37.211Z,60.50
2018-12-29T02:12:18.581Z,60.10
2018-12-29T02:15:02.045Z,60.80
2018-12-29T02:20:30.797Z,57.90
2018-12-29T02:25:56.022Z,60.17
2018-12-29T02:28:36.685Z,70.03
2018-12-29T02:31:18.148Z,62.38
2018-12-29T02:34:00.291Z,60.78
2018-12-29T02:39:31.651Z,63.85
2018-12-29T02:47:47.678Z,60.92
2018-12-29T02:50:28.146Z,68.45
2018-12-29T02:53:09.733Z,59.15
2018-12-29T02:55:51.383Z,60.73
2018-12-29T03:01:17.361Z,59.98
2018-12-29T03:06:43.510Z,58.42
2018-12-29T03:12:09.144Z,59.48
2018-12-29T03:17:35.632Z,55.00
2018-12-29T03:20:16.927Z,62.00
2018-12-29T03:25:46.538Z,60.23
2018-12-29T03:31:16.154Z,60.55
2018-12-29T03:36:41.474Z,65.52
2018-12-29T03:42:07.190Z,62.35
2018-12-29T03:47:37.186Z,66.37
2018-12-29T03:50:18.350Z,62.83
2018-12-29T03:52:58.918Z,66.77
2018-12-29T03:58:28.656Z,59.03
2018-12-29T04:03:59.073Z,61.08
2018-12-29T04:06:40.054Z,66.70
2018-12-29T04:09:20.778Z,61.05
2018-12-29T04:12:03.047Z,65.78
2018-12-29T04:14:43.779Z,63.00
2018-12-29T04:17:24.622Z,64.42
2018-12-29T04:20:06.341Z,61.25
2018-12-29T04:22:47.373Z,62.10
2018-12-29T04:25:28.118Z,59.98
2018-12-29T04:28:09.593Z,57.43
2018-12-29T04:30:50.558Z,59.05
2018-12-29T04:33:31.021Z,57.50
2018-12-29T04:38:57.657Z,53.83
2018-12-29T04:44:27.422Z,54.50
2018-12-29T04:49:50.201Z,53.55
2018-12-29T04:52:30.898Z,58.08
2018-12-29T04:55:11.738Z,59.93
2018-12-29T04:57:53.046Z,59.45
2018-12-29T05:00:34.305Z,56.80
2018-12-29T05:03:15.672Z,55.78
2018-12-29T05:05:56.889Z,64.87
2018-12-29T05:08:37.905Z,58.68
2018-12-29T05:14:04.383Z,57.75
2018-12-29T05:19:31.503Z,55.05
2018-12-29T05:22:12.110Z,55.30
2018-12-29T05:24:53.294Z,58.48
2018-12-29T05:27:33.578Z,53.35
2018-12-29T05:30:14.190Z,56.90
2018-12-29T05:32:54.854Z,54.33
2018-12-29T05:35:35.617Z,50.90
2018-12-29T05:38:17.196Z,47.25
2018-12-29T05:40:58.042Z,51.02
2018-12-29T05:43:39.697Z,48.17
2018-12-29T05:46:20.815Z,51.73
2018-12-29T05:49:01.502Z,51.35
2018-12-29T05:51:42.565Z,49.65
2018-12-29T05:54:22.998Z,47.88
2018-12-29T05:57:03.297Z,50.95
2018-12-29T05:59:43.682Z,46.20
2018-12-29T06:05:12.314Z,45.58
2018-12-29T06:10:43.110Z,46.30
2018-12-29T06:16:09.602Z,43.05
2018-12-29T06:18:50.994Z,45.33
2018-12-29T06:21:32.009Z,46.65
2018-12-29T06:24:13.931Z,44.67
2018-12-29T06:29:43.558Z,45.15
2018-12-29T06:37:59.433Z,42.33
2018-12-29T06:40:42.842Z,49.73
2018-12-29T06:43:23.081Z,43.80
2018-12-29T06:46:04.133Z,45.88
2018-12-29T06:48:45.382Z,44.63
2018-12-29T06:54:14.689Z,46.00
2018-12-29T06:56:55.810Z,45.25
2018-12-29T06:59:36.597Z,45.20
2018-12-29T07:02:16.966Z,43.48
2018-12-29T07:04:57.961Z,46.45
2018-12-29T07:07:38.859Z,45.60
2018-12-29T07:10:19.845Z,45.45
2018-12-29T07:13:00.201Z,44.65
2018-12-29T07:15:41.246Z,45.58
2018-12-29T07:18:21.881Z,47.08
2018-12-29T07:21:02.945Z,45.38
2018-12-29T07:23:45.874Z,48.63
2018-12-29T07:26:26.550Z,48.78
2018-12-29T07:29:07.678Z,50.38
2018-12-29T07:31:48.202Z,49.27
2018-12-29T07:34:29.044Z,47.98
2018-12-29T07:37:10.273Z,44.50
2018-12-29T07:39:50.862Z,50.58
2018-12-29T07:42:32.345Z,47.20
2018-12-29T07:45:13.103Z,47.67
2018-12-29T07:47:53.893Z,51.33
2018-12-29T07:50:34.353Z,47.05
2018-12-29T07:53:15.636Z,47.48
2018-12-29T07:55:56.944Z,51.05
2018-12-29T07:58:38.033Z,47.75
2018-12-29T08:01:18.829Z,50.10
2018-12-29T08:03:59.964Z,49.83
2018-12-29T08:06:40.521Z,47.03
2018-12-29T08:09:21.485Z,51.88
2018-12-29T08:12:02.241Z,45.17
2018-12-29T08:14:42.934Z,50.78
2018-12-29T08:17:23.293Z,50.73
2018-12-29T08:20:03.701Z,49.13
2018-12-29T08:22:44.858Z,53.73
2018-12-29T08:25:26.021Z,54.45
2018-12-29T08:28:06.649Z,54.00
2018-12-29T08:30:47.368Z,52.15
2018-12-29T08:33:28.110Z,52.10
2018-12-29T08:36:08.862Z,56.95
2018-12-29T08:38:49.425Z,52.53
2018-12-29T08:41:30.678Z,56.98
2018-12-29T08:44:11.943Z,51.10
2018-12-29T08:46:52.549Z,49.53
2018-12-29T08:49:33.853Z,48.08
2018-12-29T08:52:14.820Z,50.50
2018-12-29T08:54:55.653Z,50.65
2018-12-29T08:57:34.649Z,56.23
2018-12-29T09:00:22.526Z,50.75
2018-12-29T09:03:10.412Z,51.28
2018-12-29T09:05:58.294Z,49.80
2018-12-29T09:08:46.161Z,54.38
2018-12-29T09:11:34.578Z,51.73
2018-12-29T09:14:22.936Z,54.65
2018-12-29T09:17:12.282Z,48.20
2018-12-29T09:20:00.710Z,52.48
2018-12-29T09:22:48.833Z,54.40
2018-12-29T09:25:36.993Z,53.48
2018-12-29T09:28:25.157Z,52.62
2018-12-29T09:31:13.277Z,53.83
2018-12-29T09:34:01.150Z,54.90
2018-12-29T09:36:49.269Z,52.62
2018-12-29T09:39:37.478Z,54.50
2018-12-29T09:42:25.363Z,51.35
2018-12-29T09:45:13.473Z,55.23
2018-12-29T09:48:01.393Z,52.25
2018-12-29T09:50:49.514Z,52.40
2018-12-29T09:53:37.861Z,58.15
2018-12-29T09:56:25.982Z,50.15
2018-12-29T09:59:13.845Z,48.98
2018-12-29T10:02:02.223Z,50.43
2018-12-29T10:04:50.573Z,51.20
2018-12-29T10:07:38.693Z,53.42
2018-12-29T10:10:26.641Z,54.85
2018-12-29T10:13:14.753Z,57.95
2018-12-29T10:16:02.889Z,54.50
2018-12-29T10:18:50.757Z,49.85
2018-12-29T10:21:38.875Z,57.23
2018-12-29T10:24:26.965Z,53.33
2018-12-29T10:27:15.349Z,57.25
2018-12-29T10:30:03.525Z,59.45
2018-12-29T10:32:51.401Z,52.78
2018-12-29T10:35:39.737Z,54.77
2018-12-29T10:38:27.852Z,50.58
2018-12-29T10:41:10.050Z,51.33
2018-12-29T10:43:51.281Z,53.02
2018-12-29T10:46:34.978Z,52.20
2018-12-29T10:52:06.378Z,55.12
2018-12-29T10:57:37.658Z,53.15
2018-12-29T11:03:07.126Z,53.83
2018-12-29T11:08:35.946Z,49.00
2018-12-29T11:11:16.814Z,52.78
2018-12-29T11:16:43.058Z,50.05
2018-12-29T11:22:13.310Z,52.43
2018-12-29T11:27:42.810Z,53.78
2018-12-29T11:33:12.826Z,48.00
2018-12-29T11:38:45.274Z,48.50
2018-12-29T11:44:11.850Z,50.03
2018-12-29T11:49:41.473Z,49.40
2018-12-29T11:52:22.414Z,48.60
2018-12-29T11:57:53.034Z,45.98
2018-12-29T12:03:24.606Z,45.17
2018-12-29T12:06:08.025Z,47.05
2018-12-29T12:11:34.974Z,48.68
2018-12-29T12:14:16.937Z,50.03
2018-12-29T12:19:46.678Z,48.20
2018-12-29T12:22:27.145Z,46.75
2018-12-29T12:25:08.610Z,47.43
2018-12-29T12:27:49.309Z,54.50
2018-12-29T12:30:30.349Z,49.42
2018-12-29T12:33:11.553Z,51.50
2018-12-29T12:35:52.745Z,52.15
2018-12-29T12:38:34.224Z,51.70
2018-12-29T12:43:57.086Z,46.28
2018-12-29T12:49:23.677Z,48.92
2018-12-29T12:52:03.943Z,45.33
2018-12-29T12:54:44.698Z,52.45
2018-12-29T13:00:07.853Z,43.05
2018-12-29T13:05:38.406Z,47.93
2018-12-29T13:08:19.417Z,47.70
2018-12-29T13:13:46.370Z,50.60
2018-12-29T13:19:16.635Z,41.05
2018-12-29T13:24:39.540Z,35.70
2018-12-29T13:30:09.885Z,37.35
2018-12-29T13:32:50.638Z,28.52
2018-12-29T13:35:32.482Z,29.55
2018-12-29T13:38:13.013Z,36.83
2018-12-29T13:40:54.290Z,34.00
2018-12-29T13:43:35.303Z,37.95
2018-12-29T13:46:16.465Z,33.85
2018-12-29T13:48:57.553Z,35.50
2018-12-29T13:51:38.617Z,36.17
2018-12-29T13:54:19.705Z,34.88
2018-12-29T13:57:01.177Z,36.53
2018-12-29T13:59:42.721Z,40.80
2018-12-29T14:02:23.314Z,39.33
2018-12-29T14:05:03.746Z,38.85
2018-12-29T14:07:44.574Z,38.55
2018-12-29T14:10:25.628Z,44.30
2018-12-29T14:13:06.594Z,41.85
2018-12-29T14:15:47.570Z,43.60
2018-12-29T14:18:28.591Z,41.00
2018-12-29T14:21:09.593Z,42.88
2018-12-29T14:23:58.690Z,44.75
2018-12-29T14:26:44.695Z,41.65
2018-12-29T14:34:59.461Z,38.73
2018-12-29T14:46:16.597Z,43.35
2018-12-29T14:48:57.140Z,40.23
2018-12-29T14:57:20.065Z,41.25
2018-12-29T15:02:49.379Z,45.50
2018-12-29T15:05:30.253Z,44.73
2018-12-29T15:11:03.057Z,47.00
2018-12-29T15:13:45.685Z,40.98
2018-12-29T15:19:16.745Z,41.92
2018-12-29T15:27:37.548Z,43.63
2018-12-29T15:33:02.521Z,40.28
2018-12-29T15:35:43.132Z,45.03
2018-12-29T15:38:24.151Z,45.83
2018-12-29T15:41:04.839Z,41.95
2018-12-29T15:43:45.757Z,39.75
2018-12-29T15:46:26.625Z,50.35
2018-12-29T15:49:07.026Z,40.88
2018-12-29T15:51:47.660Z,43.05
2018-12-29T15:54:28.726Z,41.50
2018-12-29T15:57:09.425Z,42.70
2018-12-29T15:59:50.073Z,44.60
2018-12-29T16:02:30.434Z,36.55
2018-12-29T16:05:11.682Z,40.50
2018-12-29T16:07:53.382Z,42.05
2018-12-29T16:10:34.272Z,46.23
2018-12-29T16:13:14.994Z,42.60
2018-12-29T16:15:55.945Z,42.40
2018-12-29T16:18:37.187Z,45.33
2018-12-29T16:21:18.037Z,39.55
2018-12-29T16:23:58.521Z,38.50
2018-12-29T16:26:39.744Z,39.38
2018-12-29T16:29:22.519Z,40.35
2018-12-29T16:32:03.690Z,42.58
2018-12-29T16:34:44.493Z,40.08
2018-12-29T16:37:26.117Z,40.83
2018-12-29T16:40:06.539Z,40.70
2018-12-29T16:42:47.919Z,42.88
2018-12-29T16:45:28.930Z,40.70
2018-12-29T16:48:09.741Z,39.18
2018-12-29T16:50:50.649Z,40.60
2018-12-29T16:53:31.550Z,43.17
2018-12-29T16:56:12.805Z,37.30
2018-12-29T16:58:54.137Z,39.27
2018-12-29T17:01:35.250Z,40.20
2018-12-29T17:04:16.058Z,43.23
2018-12-29T17:06:57.102Z,38.33
2018-12-29T17:09:38.529Z,37.00
2018-12-29T17:12:19.262Z,41.13
2018-12-29T17:15:00.002Z,38.55
2018-12-29T17:17:40.565Z,39.20
2018-12-29T17:20:21.717Z,40.58
2018-12-29T17:23:02.282Z,40.12
2018-12-29T17:25:43.625Z,35.52
2018-12-29T17:28:24.618Z,38.17
2018-12-29T17:31:06.010Z,37.65
2018-12-29T17:33:46.512Z,35.73
2018-12-29T17:36:27.247Z,41.55
2018-12-29T17:39:07.724Z,39.30
2018-12-29T17:41:53.461Z,43.50
2018-12-29T17:44:34.573Z,42.75
2018-12-29T17:47:15.614Z,47.83
2018-12-29T17:49:57.083Z,46.75
2018-12-29T17:52:38.150Z,40.67
2018-12-29T17:55:19.674Z,38.48
2018-12-29T17:58:01.088Z,41.30
2018-12-29T18:00:42.330Z,37.90
2018-12-29T18:03:23.593Z,40.90
2018-12-29T18:06:04.694Z,39.45
2018-12-29T18:08:45.237Z,44.75
2018-12-29T18:11:26.681Z,46.70
2018-12-29T18:14:07.854Z,41.23
2018-12-29T18:16:48.505Z,41.75
2018-12-29T18:19:30.765Z,40.52
2018-12-29T18:22:11.714Z,44.95
2018-12-29T18:24:52.481Z,37.60
2018-12-29T18:27:36.109Z,36.45
2018-12-29T18:30:17.386Z,35.50
2018-12-29T18:32:57.919Z,40.83
2018-12-29T18:38:26.749Z,39.33
2018-12-29T18:41:07.521Z,37.48
2018-12-29T18:43:49.690Z,37.63
2018-12-29T18:46:31.193Z,43.87
2018-12-29T18:49:13.322Z,39.05
2018-12-29T18:54:44.728Z,42.48
2018-12-29T18:57:26.229Z,42.95
2018-12-29T19:00:06.974Z,45.20
2018-12-29T19:02:48.277Z,44.03
2018-12-29T19:08:14.506Z,46.40
2018-12-29T19:13:45.185Z,40.23
2018-12-29T19:19:12.154Z,42.48
2018-12-29T19:21:53.309Z,42.85
2018-12-29T19:24:35.762Z,47.65
2018-12-29T19:30:05.385Z,39.30
2018-12-29T19:35:34.338Z,39.95
2018-12-29T19:38:15.006Z,41.55
2018-12-29T19:43:46.434Z,36.03
2018-12-29T19:49:13.163Z,42.38
2018-12-29T19:54:44.526Z,38.50
2018-12-29T19:57:25.542Z,41.50
2018-12-29T20:00:07.710Z,39.30
2018-12-29T20:05:33.797Z,37.05
2018-12-29T20:10:59.422Z,39.67
2018-12-29T20:13:41.741Z,35.23
2018-12-29T20:19:06.746Z,34.78
2018-12-29T20:24:33.326Z,33.38
2018-12-29T20:29:58.157Z,32.35
2018-12-29T20:35:27.805Z,31.52
2018-12-29T20:40:59.394Z,32.63
2018-12-29T20:43:40.429Z,36.75
2018-12-29T20:49:11.057Z,32.60
2018-12-29T20:51:51.489Z,32.38
2018-12-29T20:54:32.247Z,32.20
2018-12-29T21:00:01.902Z,31.60
2018-12-29T21:02:43.358Z,24.77
2018-12-29T21:05:25.791Z,28.00
2018-12-29T21:08:07.017Z,24.15
2018-12-29T21:10:47.873Z,25.90
2018-12-29T21:13:28.429Z,16.07
2018-12-29T21:16:09.332Z,14.50
2018-12-29T21:18:38.257Z,16.32
2018-12-29T21:21:28.093Z,11.30
2018-12-29T21:24:16.029Z,10.65
2018-12-29T21:27:04.185Z,9.80
2018-12-29T21:29:52.276Z,8.50
2018-12-29T21:32:40.176Z,10.68
2018-12-29T21:35:28.290Z,8.40
2018-12-29T21:38:16.751Z,8.10
2018-12-29T21:41:04.681Z,8.65
2018-12-29T21:43:52.553Z,8.70
2018-12-29T21:46:40.686Z,8.30
2018-12-29T21:49:28.548Z,6.17
2018-12-29T21:52:16.894Z,5.53
2018-12-29T21:55:04.818Z,5.60
2018-12-29T21:57:52.710Z,5.47
2018-12-29T22:00:41.074Z,4.70
2018-12-29T22:03:30.689Z,5.35
2018-12-29T22:06:18.567Z,4.60
2018-12-29T22:09:08.646Z,5.45
2018-12-29T22:11:56.781Z,4.30
2018-12-29T22:14:44.881Z,4.50
2018-12-29T22:17:33.065Z,6.00
2018-12-29T22:20:21.169Z,4.72
2018-12-29T22:23:09.276Z,5.87
2018-12-29T22:25:57.641Z,5.08
2018-12-29T22:28:45.526Z,6.20
2018-12-29T22:31:33.966Z,5.85
2018-12-29T22:34:22.100Z,5.12
2018-12-29T22:37:10.269Z,4.95
2018-12-29T22:39:58.394Z,4.75
2018-12-29T22:42:39.673Z,5.08
2018-12-29T22:45:20.376Z,4.15
2018-12-29T22:48:01.574Z,7.78
2018-12-29T22:50:41.267Z,4.83
2018-12-29T22:53:29.480Z,6.17
2018-12-29T22:56:17.354Z,5.10
2018-12-29T22:59:07.190Z,5.35
2018-12-29T23:01:55.508Z,7.15
2018-12-29T23:04:43.659Z,6.37
2018-12-29T23:07:33.580Z,6.78
2018-12-29T23:10:22.123Z,6.55
2018-12-29T23:13:10.508Z,6.75
2018-12-29T23:15:59.238Z,6.10
2018-12-29T23:18:47.117Z,8.18
2018-12-29T23:21:35.218Z,7.00
2018-12-29T23:24:23.814Z,8.60
2018-12-29T23:27:11.997Z,8.10
2018-12-29T23:30:00.668Z,8.33
2018-12-29T23:32:48.589Z,8.03
2018-12-29T23:35:36.469Z,8.78
2018-12-29T23:38:26.076Z,7.30
2018-12-29T23:41:14.010Z,7.47
2018-12-29T23:43:56.526Z,10.20
2018-12-29T23:49:22.518Z,10.08
2018-12-29T23:52:03.485Z,10.88
2018-12-29T23:54:46.931Z,11.68
